• Join FlightAware (Why Join?)
  • Login
  • US Flag 
04:37PM EST


 

Airport Tracker/Info


-or-


 

Live Flight TrackerFlight Track Log ✈ UAE748 ✈ 29-Apr-2012 ✈ DTTA / TUN - OMDB / DXB

Flight Track Log - Related Links

Times and Time Zones

All times are in EDT time to prevent confusion due to time zone crossing. See the UAE748 flight status page for this flight to view local times or setup timezone preferences in your user account.

Time Position Orientation Groundspeed Altitude Reporting Facility
EDT Latitude Longitude Course Direction KTS MPH feet Rate Location/Type
10:21AM 36.7063 12.5841 95° East  Level Estimated
10:22AM 36.6951 12.7383 95° East  Level Estimated
10:23AM 36.6838 12.8925 95° East  Level Estimated
10:24AM 36.6723 13.0466 95° East  Level Estimated
10:25AM 36.6606 13.2007 95° East  Level Estimated
10:26AM 36.6487 13.3547 96° East  Level Estimated
10:27AM 36.6366 13.5087 96° East  Level Estimated
10:28AM 36.6243 13.6627 96° East  Level Estimated
10:29AM 36.6118 13.8166 96° East  Level Estimated
10:30AM 36.5991 13.9704 96° East  Level Estimated
10:31AM 36.5862 14.1242 96° East  Level Estimated
10:32AM 36.5731 14.2779 96° East  Level Estimated
10:33AM 36.5598 14.4316 96° East  Level Estimated
10:34AM 36.5463 14.5852 96° East  Level Estimated
10:35AM 36.5326 14.7388 96° East  Level Estimated
10:36AM 36.5187 14.8924 96° East  Level Estimated
10:37AM 36.5046 15.0458 97° East  Level Estimated
10:38AM 36.4904 15.1992 97° East  Level Estimated
10:39AM 36.4759 15.3526 97° East  Level Estimated
10:40AM 36.4612 15.5059 97° East  Level Estimated
10:41AM 36.4464 15.6591 97° East  Level Estimated
10:42AM 36.4313 15.8123 97° East  Level Estimated
10:43AM 36.4160 15.9654 97° East  Level Estimated
10:44AM 36.4006 16.1185 97° East  Level Estimated
10:45AM 36.3849 16.2715 97° East  Level Estimated
10:46AM 36.3691 16.4244 97° East  Level Estimated
10:47AM 36.3531 16.5773 97° East  Level Estimated
10:48AM 36.3368 16.7301 98° East  Level Estimated
10:49AM 36.3204 16.8828 98° East  Level Estimated
10:50AM 36.3038 17.0355 98° East  Level Estimated
10:51AM 36.2869 17.1881 98° East  Level Estimated
10:52AM 36.2699 17.3407 98° East  Level Estimated
10:53AM 36.2527 17.4932 98° East  Level Estimated
10:54AM 36.2353 17.6456 98° East  Level Estimated
10:55AM 36.2178 17.7979 98° East  Level Estimated
10:56AM 36.2000 17.9502 98° East  Level Estimated
10:57AM 36.1820 18.1024 98° East  Level Estimated
10:58AM 36.1638 18.2545 98° East  Level Estimated
10:59AM 36.1455 18.4066 99° East  Level Estimated
11:00AM 36.1269 18.5586 99° East  Level Estimated
11:01AM 36.1082 18.7105 99° East  Level Estimated
11:02AM 36.0892 18.8624 99° East  Level Estimated
11:03AM 36.0701 19.0142 99° East  Level Estimated
11:04AM 36.0508 19.1658 99° East  Level Estimated
11:05AM 36.0313 19.3175 99° East  Level Estimated
11:06AM 36.0116 19.4690 99° East  Level Estimated
11:07AM 35.9917 19.6205 99° East  Level Estimated
11:08AM 35.9716 19.7719 99° East  Level Estimated
11:09AM 35.9513 19.9232 99° East  Level Estimated
11:10AM 35.9309 20.0745 100° East  Level Estimated
11:11AM 35.9102 20.2256 100° East  Level Estimated
11:12AM 35.8894 20.3767 100° East  Level Estimated
11:13AM 35.8684 20.5277 100° East  Level Estimated
11:14AM 35.8471 20.6787 100° East  Level Estimated
11:15AM 35.8257 20.8295 100° East  Level Estimated
11:16AM 35.8041 20.9803 100° East  Level Estimated
11:17AM 35.7823 21.1309 100° East  Level Estimated
11:18AM 35.7604 21.2815 100° East  Level Estimated
11:19AM 35.7382 21.4321 100° East  Level Estimated
11:20AM 35.7159 21.5825 100° East  Level Estimated
11:21AM 35.6933 21.7328 101° East  Level Estimated
11:22AM 35.6706 21.8831 101° East  Level Estimated
11:23AM 35.6477 22.0333 101° East  Level Estimated
11:24AM 35.6246 22.1833 101° East  Level Estimated
11:25AM 35.6013 22.3333 101° East  Level Estimated
11:26AM 35.5779 22.4832 101° East  Level Estimated
11:27AM 35.5542 22.6331 101° East  Level Estimated
11:28AM 35.5304 22.7828 101° East  Level Estimated
11:29AM 35.5064 22.9325 101° East  Level Estimated
11:30AM 35.4822 23.0820 101° East  Level Estimated
11:31AM 35.4578 23.2315 101° East  Level Estimated
11:32AM 35.4332 23.3809 101° East  Level Estimated
11:33AM 35.4084 23.5301 102° East  Level Estimated
11:34AM 35.3835 23.6793 102° East  Level Estimated
11:35AM 35.3584 23.8284 102° East  Level Estimated
11:36AM 35.3331 23.9774 102° East  Level Estimated
11:37AM 35.3076 24.1264 102° East  Level Estimated
11:38AM 35.2819 24.2752 102° East  Level Estimated
11:39AM 35.2560 24.4239 102° East  Level Estimated
11:40AM 35.2300 24.5725 102° East  Level Estimated
11:41AM 35.2038 24.7211 102° East  Level Estimated
11:42AM 35.1774 24.8695 102° East  Level Estimated
11:43AM 35.1508 25.0178 102° East  Level Estimated
11:44AM 35.1240 25.1661 102° East  Level Estimated
11:45AM 35.0971 25.3142 103° East  Level Estimated
11:46AM 35.0700 25.4623 103° East  Level Estimated
11:47AM 35.0427 25.6102 103° East  Level Estimated
11:48AM 35.0152 25.7581 103° East  Level Estimated
11:49AM 34.9875 25.9058 103° East  Level Estimated
11:50AM 34.9597 26.0535 103° East  Level Estimated
11:51AM 34.9317 26.2010 103° East  Level Estimated
11:52AM 34.9035 26.3485 103° East  Level Estimated
11:53AM 34.8751 26.4958 103° East  Level Estimated
11:54AM 34.8466 26.6431 103° East  Level Estimated
11:55AM 34.8178 26.7902 103° East  Level Estimated
11:56AM 34.7889 26.9372 104° East  Level Estimated
11:57AM 34.7598 27.0842 104° East  Level Estimated
11:58AM 34.7306 27.2310 104° East  Level Estimated
11:59AM 34.7011 27.3777 104° East  Level Estimated
12:00PM 34.6715 27.5244 104° East  Level Estimated
12:01PM 34.6418 27.6709 104° East  Level Estimated
12:02PM 34.6118 27.8173 104° East  Level Estimated
12:03PM 34.5816 27.9636 104° East  Level Estimated
12:04PM 34.5513 28.1098 104° East  Level Estimated
12:05PM 34.5209 28.2559 104° East  Level Estimated
12:06PM 34.4902 28.4019 104° East  Level Estimated
12:07PM 34.4594 28.5478 104° East  Level Estimated
12:08PM 34.4283 28.6935 105° East  Level Estimated
12:09PM 34.3972 28.8392 105° East  Level Estimated
12:10PM 34.3658 28.9847 105° East  Level Estimated
12:11PM 34.3343 29.1302 105° East  Level Estimated
12:12PM 34.3026 29.2755 105° East  Level Estimated
12:13PM 34.2707 29.4207 105° East  Level Estimated
12:14PM 34.2387 29.5658 105° East  Level Estimated
12:15PM 34.2065 29.7108 105° East  Level Estimated
12:16PM 34.1741 29.8557 105° East  Level Estimated
12:17PM 34.1416 30.0005 105° East  Level Estimated
12:18PM 34.1088 30.1452 105° East  Level Estimated
12:19PM 34.0760 30.2897 105° East  Level Estimated
12:20PM 34.0429 30.4342 105° East  Level Estimated
12:21PM 34.0097 30.5785 106° East  Level Estimated
12:22PM 33.9763 30.7227 106° East  Level Estimated
12:23PM 33.9427 30.8668 106° East  Level Estimated
12:24PM 33.9090 31.0108 106° East  Level Estimated
12:25PM 33.8751 31.1547 106° East  Level Estimated
12:26PM 33.8410 31.2985 106° East  Level Estimated
12:27PM 33.8068 31.4421 106° East  Level Estimated
12:28PM 33.7724 31.5856 106° East  Level Estimated
12:29PM 33.7378 31.7290 106° East  Level Estimated
12:30PM 33.7031 31.8724 106° East  Level Estimated
12:31PM 33.6682 32.0155 106° East  Level Estimated
12:32PM 33.6331 32.1586 106° East  Level Estimated
12:33PM 33.5979 32.3016 107° East  Level Estimated
12:34PM 33.5625 32.4444 107° East  Level Estimated
12:35PM 33.5270 32.5871 107° East  Level Estimated
12:36PM 33.4912 32.7297 107° East  Level Estimated
12:37PM 33.4554 32.8722 107° East  Level Estimated
12:38PM 33.4193 33.0145 107° East  Level Estimated
12:39PM 33.3831 33.1568 107° East  Level Estimated
12:40PM 33.3467 33.2989 107° East  Level Estimated
12:41PM 33.3102 33.4409 107° East  Level Estimated
12:42PM 33.2735 33.5828 107° East  Level Estimated
12:43PM 33.2367 33.7246 107° East  Level Estimated
12:44PM 33.1997 33.8662 107° East  Level Estimated
12:45PM 33.1625 34.0078 107° East  Level Estimated
12:46PM 33.1252 34.1492 108° East  Level Estimated
12:47PM 33.0877 34.2905 108° East  Level Estimated
12:48PM 33.0500 34.4316 108° East  Level Estimated
12:49PM 33.0122 34.5727 108° East  Level Estimated
12:50PM 32.9742 34.7136 108° East  Level Estimated
12:51PM 32.9361 34.8544 108° East  Level Estimated
12:52PM 32.8978 34.9951 108° East  Level Estimated
12:53PM 32.8594 35.1357 108° East  Level Estimated
12:54PM 32.8208 35.2761 108° East  Level Estimated
12:55PM 32.7820 35.4164 108° East  Level Estimated
12:56PM 32.7431 35.5566 108° East  Level Estimated
12:57PM 32.7040 35.6967 108° East  Level Estimated
12:58PM 32.6648 35.8366 108° East  Level Estimated
12:59PM 32.6255 35.9765 109° East  Level Estimated
01:00PM 32.5859 36.1162 109° East  Level Estimated
01:01PM 32.5462 36.2557 109° East  Level Estimated
01:02PM 32.5064 36.3952 109° East  Level Estimated
01:03PM 32.4664 36.5345 109° East  Level Estimated
01:04PM 32.4262 36.6737 109° East  Level Estimated
01:05PM 32.3859 36.8128 109° East  Level Estimated
01:06PM 32.3455 36.9518 109° East  Level Estimated
01:07PM 32.3049 37.0906 109° East  Level Estimated
01:08PM 32.2641 37.2293 109° East  Level Estimated
01:09PM 32.2232 37.3679 109° East  Level Estimated
01:10PM 32.1822 37.5064 109° East  Level Estimated
01:11PM 32.1409 37.6447 109° East  Level Estimated
01:12PM 32.0996 37.7829 109° East  Level Estimated
01:13PM 32.0581 37.9210 110° East  Level Estimated
01:14PM 32.0164 38.0590 110° East  Level Estimated
01:15PM 31.9746 38.1968 110° East  Level Estimated
01:16PM 31.9326 38.3345 110° East  Level Estimated
01:17PM 31.8905 38.4721 110° East  Level Estimated
01:18PM 31.8483 38.6096 110° East  Level Estimated
01:19PM 31.8059 38.7469 110° East  Level Estimated
01:20PM 31.7633 38.8841 110° East  Level Estimated
01:21PM 31.7206 39.0212 110° East  Level Estimated
01:22PM 31.6778 39.1581 110° East  Level Estimated
01:23PM 31.6348 39.2949 110° East  Level Estimated
01:24PM 31.5917 39.4316 110° East  Level Estimated
01:25PM 31.5484 39.5682 110° East  Level Estimated
01:26PM 31.5049 39.7047 111° Southeast  Level Estimated
01:27PM 31.4614 39.8410 111° Southeast  Level Estimated
01:28PM 31.4177 39.9772 111° Southeast  Level Estimated
01:29PM 31.3738 40.1132 111° Southeast  Level Estimated
01:30PM 31.3298 40.2492 111° Southeast  Level Estimated
01:31PM 31.2857 40.3850 111° Southeast  Level Estimated
01:32PM 31.2414 40.5206 111° Southeast  Level Estimated
01:33PM 31.1969 40.6562 111° Southeast  Level Estimated
01:34PM 31.1524 40.7916 111° Southeast  Level Estimated
01:35PM 31.1077 40.9269 111° Southeast  Level Estimated
01:36PM 31.0628 41.0621 111° Southeast  Level Estimated
01:37PM 31.0178 41.1971 111° Southeast  Level Estimated
01:38PM 30.9727 41.3321 111° Southeast  Level Estimated
01:39PM 30.9274 41.4669 111° Southeast  Level Estimated
01:40PM 30.8820 41.6015 111° Southeast  Level Estimated
01:41PM 30.8364 41.7360 112° Southeast  Level Estimated
01:42PM 30.7907 41.8704 112° Southeast  Level Estimated
01:43PM 30.7449 42.0047 112° Southeast  Level Estimated
01:44PM 30.6989 42.1389 112° Southeast  Level Estimated
01:45PM 30.6528 42.2729 112° Southeast  Level Estimated
01:46PM 30.6066 42.4068 112° Southeast  Level Estimated
01:47PM 30.5602 42.5406 112° Southeast  Level Estimated
01:48PM 30.5137 42.6742 112° Southeast  Level Estimated
01:49PM 30.4670 42.8077 112° Southeast  Level Estimated
01:50PM 30.4202 42.9411 112° Southeast  Level Estimated
01:51PM 30.3733 43.0743 112° Southeast  Level Estimated
01:52PM 30.3262 43.2075 112° Southeast  Level Estimated
01:53PM 30.2790 43.3405 112° Southeast  Level Estimated
01:54PM 30.2317 43.4733 112° Southeast  Level Estimated
01:55PM 30.1842 43.6061 113° Southeast  Level Estimated
01:56PM 30.1367 43.7387 113° Southeast  Level Estimated
01:57PM 30.0889 43.8712 113° Southeast  Level Estimated
01:58PM 30.0411 44.0035 113° Southeast  Level Estimated
01:59PM 29.9931 44.1357 113° Southeast  Level Estimated
02:00PM 29.9449 44.2678 113° Southeast  Level Estimated
02:01PM 29.8967 44.3998 113° Southeast  Level Estimated
02:02PM 29.8483 44.5317 113° Southeast  Level Estimated
02:03PM 29.7998 44.6634 113° Southeast  Level Estimated
02:04PM 29.7511 44.7950 113° Southeast  Level Estimated
02:05PM 29.7023 44.9264 113° Southeast  Level Estimated
02:06PM 29.6534 45.0578 113° Southeast  Level Estimated
02:07PM 29.6044 45.1890 113° Southeast  Level Estimated
02:08PM 29.5552 45.3200 113° Southeast  Level Estimated
02:09PM 29.5059 45.4510 113° Southeast  Level Estimated
02:10PM 29.4565 45.5818 113° Southeast  Level Estimated
02:11PM 29.4069 45.7125 114° Southeast  Level Estimated
02:12PM 29.3572 45.8431 114° Southeast  Level Estimated
02:13PM 29.3074 45.9735 114° Southeast  Level Estimated
02:14PM 29.2575 46.1038 114° Southeast  Level Estimated
02:15PM 29.2074 46.2340 114° Southeast  Level Estimated
02:16PM 29.1572 46.3641 114° Southeast  Level Estimated
02:17PM 29.1069 46.4940 114° Southeast  Level Estimated
02:18PM 29.0565 46.6238 114° Southeast  Level Estimated
02:19PM 29.0059 46.7535 114° Southeast  Level Estimated
02:20PM 28.9552 46.8830 114° Southeast  Level Estimated
02:21PM 28.9044 47.0125 114° Southeast  Level Estimated
02:22PM 28.8535 47.1418 114° Southeast  Level Estimated
02:23PM 28.8024 47.2709 114° Southeast  Level Estimated
02:24PM 28.7512 47.4000 114° Southeast  Level Estimated
02:25PM 28.6999 47.5289 114° Southeast  Level Estimated
02:26PM 28.6485 47.6577 115° Southeast  Level Estimated
02:27PM 28.5970 47.7863 115° Southeast  Level Estimated
02:28PM 28.5453 47.9149 115° Southeast  Level Estimated
02:29PM 28.4935 48.0433 115° Southeast  Level Estimated
02:30PM 28.4416 48.1716 115° Southeast  Level Estimated
02:31PM 28.3896 48.2997 115° Southeast  Level Estimated
02:32PM 28.3374 48.4278 115° Southeast  Level Estimated
02:33PM 28.2852 48.5557 115° Southeast  Level Estimated
02:34PM 28.2328 48.6834 115° Southeast  Level Estimated
02:35PM 28.1803 48.8111 115° Southeast  Level Estimated
02:36PM 28.1276 48.9386 115° Southeast  Level Estimated
02:37PM 28.0749 49.0660 115° Southeast  Level Estimated
02:38PM 28.0220 49.1933 115° Southeast  Level Estimated
02:39PM 27.9690 49.3205 115° Southeast  Level Estimated
02:40PM 27.9159 49.4475 115° Southeast  Level Estimated
02:41PM 27.8627 49.5744 115° Southeast  Level Estimated
02:42PM 27.8094 49.7012 115° Southeast  Level Estimated
02:43PM 27.7560 49.8278 116° Southeast  Level Estimated
02:44PM 27.7024 49.9544 116° Southeast  Level Estimated
02:45PM 27.6487 50.0808 116° Southeast  Level Estimated
02:46PM 27.5949 50.2071 116° Southeast  Level Estimated
02:47PM 27.5410 50.3332 116° Southeast  Level Estimated
02:48PM 27.4870 50.4593 116° Southeast  Level Estimated
02:49PM 27.4329 50.5852 116° Southeast  Level Estimated
02:50PM 27.3787 50.7110 116° Southeast  Level Estimated
02:51PM 27.3243 50.8366 116° Southeast  Level Estimated
02:52PM 27.2698 50.9622 116° Southeast  Level Estimated
02:53PM 27.2153 51.0876 116° Southeast  Level Estimated
02:54PM 27.1606 51.2129 116° Southeast  Level Estimated
02:55PM 27.1058 51.3381 116° Southeast  Level Estimated
02:56PM 27.0508 51.4631 116° Southeast  Level Estimated
02:57PM 26.9958 51.5880 116° Southeast  Level Estimated
02:58PM 26.9407 51.7128 116° Southeast  Level Estimated
02:59PM 26.8855 51.8375 116° Southeast  Level Estimated
03:00PM 26.8301 51.9621 117° Southeast  Level Estimated
03:01PM 26.7747 52.0865 117° Southeast  Level Estimated
03:02PM 26.7191 52.2108 117° Southeast  Level Estimated
03:03PM 26.6634 52.3350 117° Southeast  Level Estimated
03:04PM 26.6076 52.4591 117° Southeast  Level Estimated
03:05PM 26.5517 52.5830 117° Southeast  Level Estimated
03:06PM 26.4957 52.7069 117° Southeast  Level Estimated
03:07PM 26.4396 52.8306 117° Southeast  Level Estimated
03:08PM 26.3834 52.9542 117° Southeast  Level Estimated
03:09PM 26.3271 53.0776 117° Southeast  Level Estimated
03:10PM 26.2707 53.2010 117° Southeast  Level Estimated
03:11PM 26.2141 53.3242 117° Southeast  Level Estimated
03:12PM 26.1575 53.4473 117° Southeast  Level Estimated
03:13PM 26.1007 53.5703 117° Southeast  Level Estimated
03:14PM 26.0439 53.6932 117° Southeast  Level Estimated
03:15PM 25.9876 53.8144 117° Southeast  Level Estimated
03:16PM 25.9313 53.9356 117° Southeast  Level Estimated
03:17PM 25.8748 54.0566 117° Southeast  Level Estimated
03:18PM 25.8183 54.1775 117° Southeast  Level Estimated
03:19PM 25.7617 54.2983 118° Southeast  Level Estimated
03:20PM 25.7049 54.4190 118° Southeast  Level Estimated
03:21PM 25.6481 54.5395 118° Southeast  Level Estimated
03:22PM 25.5911 54.6600 118° Southeast  Level Estimated
03:23PM 25.5340 54.7803 118° Southeast  Level Estimated
03:24PM 25.4769 54.9005 118° Southeast  Level Estimated
03:25PM 25.4197 55.0206 118° Southeast  Level Estimated
03:26PM 25.3623 55.1405 118° Southeast  Level Estimated
03:27PM 25.3049 55.2604 118° Southeast  Level Estimated
03:28PM 25.2474 55.3802 298° West  Level Estimated
03:29PM 25.3049 55.2604 118° Southeast  Level Estimated
03:30PM 25.2474 55.3802 298° West  Level Estimated
03:31PM 25.3049 55.2604 118° Southeast  Level Estimated
03:32PM 25.2474 55.3802 298° West  Level Estimated
03:33PM 25.3049 55.2604 118° Southeast  Level Estimated
03:34PM 25.2474 55.3802 298° West  Level Estimated
03:35PM 25.3049 55.2604 118° Southeast  Level Estimated
03:36PM 25.2474 55.3802 298° West  Level Estimated
03:37PM 25.3049 55.2604 118° Southeast  Level Estimated
03:38PM 25.2474 55.3802 298° West  Level Estimated
03:39PM 25.3049 55.2604 118° Southeast  Level Estimated
03:40PM 25.2474 55.3802 298° West  Level Estimated
03:41PM 25.3049 55.2604 118° Southeast  Level Estimated
03:42PM 25.2474 55.3802 298° West  Level Estimated
03:43PM 25.3049 55.2604 118° Southeast  Level Estimated
03:44PM 25.2474 55.3802 298° West  Level Estimated
03:45PM 25.3049 55.2604 118° Southeast  Level Estimated
03:46PM 25.2474 55.3802 298° West  Level Estimated
03:47PM 25.3049 55.2604 298° West  Level Estimated